createdAt,value
2023-01-27T00:00:35.553Z,48.06
2023-01-27T00:03:02.085Z,47.68
2023-01-27T00:05:28.592Z,48.28
2023-01-27T00:07:58.442Z,48.32
2023-01-27T00:10:25.671Z,48.07
2023-01-27T00:13:10.774Z,48.02
2023-01-27T00:15:37.665Z,47.86
2023-01-27T00:18:04.473Z,47.86
2023-01-27T00:20:49.586Z,47.50
2023-01-27T00:23:37.139Z,48.05
2023-01-27T00:26:08.700Z,47.87
2023-01-27T00:28:37.372Z,47.90
2023-01-27T00:31:06.040Z,48.31
2023-01-27T00:33:32.740Z,48.60
2023-01-27T00:36:06.994Z,47.66
2023-01-27T00:38:41.085Z,47.72
2023-01-27T00:41:20.554Z,47.72
2023-01-27T00:43:48.872Z,47.56
2023-01-27T00:46:16.876Z,47.67
2023-01-27T00:48:43.895Z,47.59
2023-01-27T00:51:11.415Z,48.21
2023-01-27T00:53:38.047Z,47.76
2023-01-27T00:56:05.326Z,48.38
2023-01-27T00:58:32.083Z,47.94
2023-01-27T01:01:01.069Z,48.36
2023-01-27T01:03:32.705Z,48.02
2023-01-27T01:06:00.784Z,48.54
2023-01-27T01:08:27.735Z,48.23
2023-01-27T01:10:54.398Z,47.79
2023-01-27T01:13:21.708Z,48.39
2023-01-27T01:15:48.563Z,48.00
2023-01-27T01:18:15.970Z,47.76
2023-01-27T01:20:45.845Z,47.61
2023-01-27T01:23:15.105Z,47.67
2023-01-27T01:25:42.421Z,47.55
2023-01-27T01:28:09.510Z,47.84
2023-01-27T01:30:37.281Z,48.66
2023-01-27T01:33:04.121Z,47.54
2023-01-27T01:35:31.073Z,47.83
2023-01-27T01:37:57.622Z,47.70
2023-01-27T01:40:25.824Z,48.13
2023-01-27T01:42:57.365Z,48.47
2023-01-27T01:45:36.675Z,47.90
2023-01-27T01:48:09.302Z,47.68
2023-01-27T01:50:37.660Z,48.73
2023-01-27T01:53:06.704Z,47.59
2023-01-27T01:55:35.329Z,48.08
2023-01-27T01:58:03.005Z,47.71
2023-01-27T02:00:29.629Z,48.58
2023-01-27T02:02:56.432Z,47.69
2023-01-27T02:05:29.379Z,47.79
2023-01-27T02:08:02.730Z,47.58
2023-01-27T02:10:29.559Z,47.90
2023-01-27T02:12:56.372Z,48.56
2023-01-27T02:15:23.010Z,48.32
2023-01-27T02:17:50.205Z,47.72
2023-01-27T02:20:53.265Z,48.33
2023-01-27T02:23:56.766Z,48.44
2023-01-27T02:26:36.955Z,48.02
2023-01-27T02:29:08.039Z,47.65
2023-01-27T02:31:35.281Z,47.68
2023-01-27T02:34:09.245Z,48.44
2023-01-27T02:36:42.052Z,47.88
2023-01-27T02:39:09.541Z,48.69
2023-01-27T02:41:49.631Z,47.72
2023-01-27T02:44:16.143Z,48.73
2023-01-27T02:46:43.463Z,47.91
2023-01-27T02:49:10.028Z,47.63
2023-01-27T02:51:36.648Z,47.84
2023-01-27T02:54:03.213Z,47.99
2023-01-27T02:56:29.714Z,47.93
2023-01-27T02:58:56.431Z,48.69
2023-01-27T03:01:24.916Z,47.63
2023-01-27T03:03:52.467Z,48.70
2023-01-27T03:06:19.918Z,48.07
2023-01-27T03:08:46.478Z,48.02
2023-01-27T03:11:13.027Z,48.39
2023-01-27T03:13:39.646Z,48.61
2023-01-27T03:16:25.437Z,47.98
2023-01-27T03:18:53.695Z,47.98
2023-01-27T03:21:20.296Z,47.84
2023-01-27T03:23:49.190Z,47.95
2023-01-27T03:26:16.161Z,48.42
2023-01-27T03:28:42.977Z,47.94
2023-01-27T03:31:19.768Z,48.13
2023-01-27T03:33:47.785Z,48.09
2023-01-27T03:36:34.481Z,47.71
2023-01-27T03:39:19.465Z,48.14
2023-01-27T03:42:04.344Z,47.33
2023-01-27T03:44:49.440Z,47.40
2023-01-27T03:47:15.957Z,47.50
2023-01-27T03:49:42.527Z,47.77
2023-01-27T03:52:09.017Z,47.93
2023-01-27T03:54:35.560Z,48.14
2023-01-27T03:57:05.891Z,48.34
2023-01-27T03:59:32.937Z,47.85
2023-01-27T04:02:18.937Z,47.54
2023-01-27T04:05:04.383Z,48.42
2023-01-27T04:07:30.969Z,48.15
2023-01-27T04:09:57.463Z,48.28
2023-01-27T04:12:24.169Z,47.72
2023-01-27T04:14:50.676Z,47.30
2023-01-27T04:17:19.260Z,47.52
2023-01-27T04:19:46.773Z,48.18
2023-01-27T04:22:15.605Z,48.16
2023-01-27T04:24:42.447Z,47.95
2023-01-27T04:27:13.847Z,48.53
2023-01-27T04:29:42.124Z,48.13
2023-01-27T04:32:10.506Z,47.47
2023-01-27T04:34:37.427Z,47.69
2023-01-27T04:37:05.624Z,47.91
2023-01-27T04:39:32.395Z,47.79
2023-01-27T04:41:58.916Z,47.48
2023-01-27T04:44:25.721Z,47.95
2023-01-27T04:46:54.013Z,47.64
2023-01-27T04:49:20.682Z,47.36
2023-01-27T04:51:47.554Z,48.41
2023-01-27T04:54:14.441Z,47.29
2023-01-27T04:56:53.535Z,48.22
2023-01-27T04:59:20.087Z,48.52
2023-01-27T05:01:46.667Z,48.15
2023-01-27T05:04:13.228Z,48.46
2023-01-27T05:06:39.732Z,47.36
2023-01-27T05:09:06.288Z,47.47
2023-01-27T05:11:32.808Z,47.54
2023-01-27T05:13:59.309Z,47.54
2023-01-27T05:16:27.504Z,47.51
2023-01-27T05:18:54.262Z,48.13
2023-01-27T05:21:24.084Z,47.74
2023-01-27T05:23:51.339Z,48.49
2023-01-27T05:26:23.845Z,47.88
2023-01-27T05:28:52.227Z,47.58
2023-01-27T05:31:21.999Z,48.53
2023-01-27T05:33:53.808Z,48.23
2023-01-27T05:36:23.300Z,47.25
2023-01-27T05:38:49.808Z,48.12
2023-01-27T05:41:17.789Z,48.15
2023-01-27T05:43:46.336Z,47.37
2023-01-27T05:46:21.155Z,47.63
2023-01-27T05:48:55.951Z,47.62
2023-01-27T05:51:24.406Z,48.35
2023-01-27T05:53:51.413Z,47.79
2023-01-27T05:56:19.474Z,47.57
2023-01-27T05:58:46.441Z,47.56
2023-01-27T06:01:14.000Z,47.83
2023-01-27T06:03:41.430Z,47.43
2023-01-27T06:06:09.626Z,47.39
2023-01-27T06:08:36.890Z,47.71
2023-01-27T06:11:04.349Z,47.69
2023-01-27T06:13:31.429Z,48.32
2023-01-27T06:15:58.103Z,48.25
2023-01-27T06:18:24.645Z,47.57
2023-01-27T06:20:51.182Z,48.22
2023-01-27T06:23:18.076Z,47.42
2023-01-27T06:25:47.755Z,48.25
2023-01-27T06:28:28.134Z,48.45
2023-01-27T06:30:55.967Z,48.38
2023-01-27T06:33:22.634Z,47.67
2023-01-27T06:35:49.352Z,47.82
2023-01-27T06:38:15.870Z,47.83
2023-01-27T06:40:43.142Z,47.69
2023-01-27T06:43:14.746Z,47.46
2023-01-27T06:45:41.518Z,47.66
2023-01-27T06:48:08.735Z,47.29
2023-01-27T06:50:36.835Z,48.08
2023-01-27T06:53:06.785Z,47.93
2023-01-27T06:55:34.885Z,47.37
2023-01-27T06:58:02.541Z,47.50
2023-01-27T07:00:29.106Z,47.25
2023-01-27T07:02:56.608Z,47.20
2023-01-27T07:05:24.151Z,47.92
2023-01-27T07:07:50.660Z,48.02
2023-01-27T07:10:17.525Z,48.15
2023-01-27T07:12:44.032Z,47.85
2023-01-27T07:15:11.403Z,47.13
2023-01-27T07:17:38.243Z,47.87
2023-01-27T07:20:07.081Z,47.52
2023-01-27T07:22:33.630Z,47.81
2023-01-27T07:25:00.128Z,47.67
2023-01-27T07:27:26.696Z,47.73
2023-01-27T07:29:53.253Z,46.91
2023-01-27T07:32:19.765Z,47.05
2023-01-27T07:34:46.424Z,47.47
2023-01-27T07:37:13.620Z,47.88
2023-01-27T07:39:40.125Z,47.40
2023-01-27T07:42:06.832Z,47.96
2023-01-27T07:44:33.459Z,47.21
2023-01-27T07:47:00.185Z,47.40
2023-01-27T07:49:27.591Z,47.19
2023-01-27T07:51:54.394Z,47.53
2023-01-27T07:54:20.935Z,47.58
2023-01-27T07:56:47.493Z,47.56
2023-01-27T07:59:14.567Z,47.17
2023-01-27T08:01:41.917Z,47.99
2023-01-27T08:04:08.704Z,47.31
2023-01-27T08:06:38.164Z,47.45
2023-01-27T08:09:04.696Z,47.23
2023-01-27T08:11:31.480Z,48.36
2023-01-27T08:13:58.035Z,48.39
2023-01-27T08:16:24.571Z,47.33
2023-01-27T08:18:53.752Z,48.24
2023-01-27T08:21:20.864Z,47.34
2023-01-27T08:23:47.512Z,48.43
2023-01-27T08:26:14.180Z,47.82
2023-01-27T08:28:41.008Z,48.29
2023-01-27T08:31:15.936Z,48.62
2023-01-27T08:33:44.930Z,48.04
2023-01-27T08:36:16.448Z,48.79
2023-01-27T08:38:44.712Z,48.25
2023-01-27T08:41:20.969Z,47.87
2023-01-27T08:43:48.231Z,48.44
2023-01-27T08:46:15.665Z,48.45
2023-01-27T08:48:42.764Z,48.79
2023-01-27T08:51:11.262Z,48.08
2023-01-27T08:53:37.754Z,48.23
2023-01-27T08:56:07.303Z,48.50
2023-01-27T08:58:34.504Z,47.73
2023-01-27T09:01:02.616Z,47.26
2023-01-27T09:03:30.553Z,47.63
2023-01-27T09:05:57.796Z,47.42
2023-01-27T09:08:24.755Z,47.79
2023-01-27T09:10:51.582Z,47.82
2023-01-27T09:13:18.780Z,47.77
2023-01-27T09:15:46.325Z,47.33
2023-01-27T09:18:12.910Z,47.15
2023-01-27T09:20:39.496Z,47.35
2023-01-27T09:23:06.209Z,47.44
2023-01-27T09:25:32.701Z,47.11
2023-01-27T09:28:00.429Z,47.66
2023-01-27T09:30:28.263Z,47.57
2023-01-27T09:33:01.688Z,46.79
2023-01-27T09:35:37.970Z,47.21
2023-01-27T09:38:06.742Z,47.37
2023-01-27T09:40:55.831Z,47.06
2023-01-27T09:43:56.624Z,47.06
2023-01-27T09:46:38.371Z,47.52
2023-01-27T09:49:14.679Z,47.22
2023-01-27T09:52:02.650Z,47.54
2023-01-27T09:54:57.656Z,47.36
2023-01-27T09:57:44.963Z,47.34
2023-01-27T10:00:29.737Z,47.86
2023-01-27T10:02:59.155Z,48.13
2023-01-27T10:05:43.577Z,47.06
2023-01-27T10:08:37.588Z,47.44
2023-01-27T10:11:28.447Z,47.96
2023-01-27T10:14:09.205Z,47.35
2023-01-27T10:16:52.071Z,47.67
2023-01-27T10:19:37.149Z,48.44
2023-01-27T10:22:15.767Z,47.75
2023-01-27T10:24:49.301Z,47.29
2023-01-27T10:27:20.572Z,47.55
2023-01-27T10:30:08.405Z,47.31
2023-01-27T10:32:43.384Z,47.47
2023-01-27T10:35:27.742Z,47.52
2023-01-27T10:38:06.594Z,47.69
2023-01-27T10:40:36.174Z,47.37
2023-01-27T10:43:34.996Z,47.34
2023-01-27T10:46:36.292Z,47.86
2023-01-27T10:49:24.325Z,47.38
2023-01-27T10:52:05.659Z,46.76
2023-01-27T10:54:44.684Z,47.29
2023-01-27T10:57:30.674Z,47.24
2023-01-27T11:03:38.212Z,47.18
2023-01-27T11:06:11.236Z,46.69
2023-01-27T11:08:41.911Z,47.14
2023-01-27T11:11:28.788Z,46.45
2023-01-27T11:14:04.698Z,46.92
2023-01-27T11:16:38.731Z,46.77
2023-01-27T11:19:23.879Z,46.55
2023-01-27T11:22:06.785Z,46.88
2023-01-27T11:24:34.445Z,46.57
2023-01-27T11:27:14.012Z,47.15
2023-01-27T11:29:49.211Z,47.09
2023-01-27T11:32:33.733Z,46.76
2023-01-27T11:35:03.977Z,47.25
2023-01-27T11:37:47.601Z,46.90
2023-01-27T11:40:28.052Z,46.50
2023-01-27T11:42:58.168Z,46.68
2023-01-27T11:45:26.014Z,46.66
2023-01-27T11:47:59.060Z,47.21
2023-01-27T11:50:31.922Z,47.22
2023-01-27T11:53:16.710Z,46.95
2023-01-27T11:55:48.784Z,46.43
2023-01-27T11:58:24.941Z,47.16
2023-01-27T12:01:01.836Z,46.95
2023-01-27T12:03:53.273Z,47.18
2023-01-27T12:06:40.910Z,47.06
2023-01-27T12:09:27.386Z,46.95
2023-01-27T12:12:11.199Z,47.11
2023-01-27T12:14:38.026Z,47.24
2023-01-27T12:17:07.755Z,46.90
2023-01-27T12:19:56.669Z,46.88
2023-01-27T12:22:34.077Z,46.78
2023-01-27T12:25:04.152Z,47.29
2023-01-27T12:27:37.024Z,47.42
2023-01-27T12:30:08.179Z,47.08
2023-01-27T12:32:40.541Z,47.09
2023-01-27T12:35:35.883Z,47.30
2023-01-27T12:38:07.186Z,47.24
2023-01-27T12:40:34.573Z,47.27
2023-01-27T12:43:13.592Z,47.48
2023-01-27T12:45:41.181Z,47.19
2023-01-27T12:48:07.662Z,46.88
2023-01-27T12:50:38.619Z,47.64
2023-01-27T12:53:16.059Z,47.30
2023-01-27T12:56:08.892Z,46.69
2023-01-27T12:58:58.285Z,46.94
2023-01-27T13:01:32.141Z,47.37
2023-01-27T13:04:27.107Z,47.65
2023-01-27T13:07:08.734Z,47.21
2023-01-27T13:09:48.470Z,47.29
2023-01-27T13:12:28.394Z,47.23
2023-01-27T13:15:06.141Z,47.17
2023-01-27T13:17:35.351Z,47.27
2023-01-27T13:20:08.444Z,47.51
2023-01-27T13:22:43.769Z,47.24
2023-01-27T13:25:19.098Z,47.71
2023-01-27T13:27:48.775Z,47.15
2023-01-27T13:30:31.774Z,47.34
2023-01-27T13:33:04.214Z,47.63
2023-01-27T13:35:41.799Z,47.57
2023-01-27T13:38:37.837Z,46.99
2023-01-27T13:41:15.548Z,47.68
2023-01-27T13:43:57.017Z,47.22
2023-01-27T13:46:31.578Z,47.04
2023-01-27T13:49:17.111Z,47.75
2023-01-27T13:51:43.626Z,47.41
2023-01-27T13:54:13.538Z,47.51
2023-01-27T13:57:13.548Z,46.84
2023-01-27T13:59:44.013Z,47.53
2023-01-27T14:02:45.235Z,47.03
2023-01-27T14:05:11.687Z,46.95
2023-01-27T14:07:48.628Z,47.19
2023-01-27T14:10:20.987Z,47.28
2023-01-27T14:13:15.014Z,47.85
2023-01-27T14:15:50.485Z,47.15
2023-01-27T14:18:22.057Z,47.24
2023-01-27T14:20:48.760Z,47.82
2023-01-27T14:23:38.914Z,47.29
2023-01-27T14:26:25.745Z,47.45
2023-01-27T14:29:01.316Z,48.11
2023-01-27T14:31:37.249Z,47.78
2023-01-27T14:34:09.844Z,47.58
2023-01-27T14:36:43.013Z,47.74
2023-01-27T14:39:25.269Z,47.85
2023-01-27T14:41:57.555Z,47.85
2023-01-27T14:44:44.228Z,47.82
2023-01-27T14:47:31.322Z,48.19
2023-01-27T14:50:06.678Z,48.39
2023-01-27T14:52:37.391Z,48.05
2023-01-27T14:55:28.394Z,47.76
2023-01-27T14:58:16.500Z,47.72
2023-01-27T15:00:45.918Z,48.28
2023-01-27T15:03:32.828Z,47.77
2023-01-27T15:06:14.557Z,48.23
2023-01-27T15:08:57.727Z,47.57
2023-01-27T15:12:01.785Z,48.52
2023-01-27T15:14:49.292Z,48.34
2023-01-27T15:17:49.654Z,47.94
2023-01-27T15:20:30.600Z,48.30
2023-01-27T15:23:19.350Z,47.61
2023-01-27T15:26:06.631Z,47.50
2023-01-27T15:28:38.407Z,48.21
2023-01-27T15:31:16.701Z,47.63
2023-01-27T15:33:55.154Z,47.84
2023-01-27T15:36:27.783Z,48.08
2023-01-27T15:39:09.345Z,47.66
2023-01-27T15:41:53.152Z,48.06
2023-01-27T15:44:30.680Z,47.88
2023-01-27T15:47:14.994Z,47.70
2023-01-27T15:49:48.316Z,47.96
2023-01-27T15:52:45.057Z,48.39
2023-01-27T15:55:27.570Z,48.17
2023-01-27T15:58:22.392Z,48.13
2023-01-27T16:00:51.516Z,48.19
2023-01-27T16:03:33.216Z,48.32
2023-01-27T16:06:09.781Z,47.63
2023-01-27T16:08:44.843Z,47.37
2023-01-27T16:11:29.519Z,47.87
2023-01-27T16:14:11.176Z,47.82
2023-01-27T16:16:58.386Z,47.88
2023-01-27T16:19:34.423Z,47.86
2023-01-27T16:22:05.323Z,48.22
2023-01-27T16:24:56.121Z,48.23
2023-01-27T16:27:36.324Z,47.96
2023-01-27T16:30:18.297Z,47.94
2023-01-27T16:33:06.309Z,48.46
2023-01-27T16:35:58.402Z,48.86
2023-01-27T16:38:31.770Z,48.50
2023-01-27T16:41:09.201Z,48.57
2023-01-27T16:43:49.775Z,48.43
2023-01-27T16:46:31.549Z,48.11
2023-01-27T16:48:59.638Z,48.43
2023-01-27T16:51:29.528Z,48.45
2023-01-27T16:54:00.267Z,48.42
2023-01-27T16:56:35.418Z,48.14
2023-01-27T16:59:06.160Z,48.20
2023-01-27T17:01:47.606Z,48.02
2023-01-27T17:04:20.598Z,48.54
2023-01-27T17:06:48.820Z,48.26
2023-01-27T17:09:41.711Z,48.89
2023-01-27T17:12:39.688Z,48.31
2023-01-27T17:15:29.070Z,48.72
2023-01-27T17:17:57.684Z,48.13
2023-01-27T17:20:29.802Z,48.37
2023-01-27T17:22:56.690Z,48.48
2023-01-27T17:25:34.664Z,48.78
2023-01-27T17:28:04.449Z,48.90
2023-01-27T17:30:39.419Z,48.27
2023-01-27T17:33:08.362Z,48.19
2023-01-27T17:35:39.766Z,48.36
2023-01-27T17:38:24.713Z,49.08
2023-01-27T17:40:53.820Z,48.30
2023-01-27T17:43:37.562Z,48.72
2023-01-27T17:46:18.979Z,48.78
2023-01-27T17:49:03.319Z,49.08
2023-01-27T17:51:40.717Z,49.56
2023-01-27T17:54:23.077Z,49.43
2023-01-27T17:56:56.631Z,49.18
2023-01-27T17:59:26.615Z,49.16
2023-01-27T18:01:55.215Z,49.06
2023-01-27T18:04:24.049Z,49.35
2023-01-27T18:06:51.700Z,49.50
2023-01-27T18:09:25.429Z,49.01
2023-01-27T18:11:53.780Z,48.65
2023-01-27T18:14:21.347Z,49.27
2023-01-27T18:17:01.140Z,49.34
2023-01-27T18:19:27.928Z,49.35
2023-01-27T18:22:20.729Z,48.65
2023-01-27T18:24:50.350Z,49.32
2023-01-27T18:27:21.845Z,49.60
2023-01-27T18:29:52.999Z,49.65
2023-01-27T18:32:24.380Z,49.07
2023-01-27T18:34:56.745Z,48.50
2023-01-27T18:37:36.227Z,48.56
2023-01-27T18:40:24.354Z,48.91
2023-01-27T18:42:55.100Z,48.76
2023-01-27T18:45:21.787Z,49.22
2023-01-27T18:47:48.363Z,49.57
2023-01-27T18:50:21.883Z,49.69
2023-01-27T18:52:49.701Z,49.58
2023-01-27T18:55:30.197Z,49.39
2023-01-27T18:57:59.091Z,49.56
2023-01-27T19:00:37.845Z,49.01
2023-01-27T19:03:11.659Z,49.28
2023-01-27T19:05:38.246Z,49.08
2023-01-27T19:08:05.065Z,49.65
2023-01-27T19:10:34.235Z,49.08
2023-01-27T19:13:02.566Z,49.43
2023-01-27T19:15:33.286Z,49.08
2023-01-27T19:18:03.033Z,48.82
2023-01-27T19:20:30.936Z,48.74
2023-01-27T19:22:58.697Z,48.82
2023-01-27T19:25:29.331Z,49.22
2023-01-27T19:28:01.458Z,49.18
2023-01-27T19:30:32.699Z,49.37
2023-01-27T19:32:59.345Z,48.86
2023-01-27T19:35:28.552Z,49.29
2023-01-27T19:37:56.313Z,49.49
2023-01-27T19:40:26.352Z,49.52
2023-01-27T19:42:53.213Z,49.74
2023-01-27T19:45:21.277Z,49.54
2023-01-27T19:47:49.543Z,48.73
2023-01-27T19:50:25.185Z,49.22
2023-01-27T19:52:52.240Z,49.80
2023-01-27T19:55:20.734Z,49.20
2023-01-27T19:57:48.719Z,49.18
2023-01-27T20:00:28.865Z,49.26
2023-01-27T20:02:56.368Z,49.56
2023-01-27T20:05:24.430Z,48.95
2023-01-27T20:07:51.775Z,50.09
2023-01-27T20:10:25.412Z,49.90
2023-01-27T20:12:54.568Z,49.59
2023-01-27T20:15:24.233Z,49.12
2023-01-27T20:17:52.356Z,49.14
2023-01-27T20:20:19.470Z,48.79
2023-01-27T20:22:46.193Z,49.88
2023-01-27T20:25:15.176Z,49.16
2023-01-27T20:27:43.300Z,49.83
2023-01-27T20:30:34.017Z,49.95
2023-01-27T20:33:02.191Z,49.85
2023-01-27T20:35:29.249Z,50.12
2023-01-27T20:37:56.048Z,49.49
2023-01-27T20:40:24.899Z,49.14
2023-01-27T20:42:52.262Z,49.19
2023-01-27T20:45:19.334Z,49.44
2023-01-27T20:47:50.819Z,49.72
2023-01-27T20:50:17.797Z,49.25
2023-01-27T20:52:44.894Z,49.17
2023-01-27T20:55:13.373Z,50.01
2023-01-27T20:57:40.067Z,50.13
2023-01-27T21:00:07.662Z,48.94
2023-01-27T21:02:34.399Z,49.97
2023-01-27T21:05:00.960Z,50.13
2023-01-27T21:07:27.587Z,49.14
2023-01-27T21:09:55.065Z,49.67
2023-01-27T21:12:21.652Z,49.15
2023-01-27T21:14:48.426Z,49.79
2023-01-27T21:17:15.316Z,49.31
2023-01-27T21:19:41.867Z,49.19
2023-01-27T21:22:08.426Z,49.30
2023-01-27T21:24:35.627Z,49.26
2023-01-27T21:27:02.285Z,49.78
2023-01-27T21:29:28.853Z,50.03
2023-01-27T21:31:55.600Z,49.30
2023-01-27T21:34:22.864Z,50.27
2023-01-27T21:36:49.499Z,49.28
2023-01-27T21:39:16.279Z,49.72
2023-01-27T21:41:55.127Z,49.04
2023-01-27T21:44:42.357Z,49.64
2023-01-27T21:47:14.097Z,50.22
2023-01-27T21:50:00.692Z,49.24
2023-01-27T21:52:49.241Z,49.18
2023-01-27T21:55:22.113Z,49.57
2023-01-27T21:57:50.900Z,49.38
2023-01-27T22:00:20.164Z,50.15
2023-01-27T22:02:56.679Z,49.50
2023-01-27T22:05:23.439Z,50.00
2023-01-27T22:07:50.529Z,49.13
2023-01-27T22:10:19.756Z,49.85
2023-01-27T22:12:46.925Z,50.06
2023-01-27T22:15:16.749Z,50.13
2023-01-27T22:17:44.202Z,49.32
2023-01-27T22:20:17.770Z,49.71
2023-01-27T22:22:45.161Z,49.88
2023-01-27T22:25:15.173Z,50.12
2023-01-27T22:27:42.748Z,49.89
2023-01-27T22:30:13.538Z,50.42
2023-01-27T22:32:40.542Z,49.81
2023-01-27T22:35:07.694Z,49.77
2023-01-27T22:37:35.782Z,49.66
2023-01-27T22:40:02.365Z,49.83
2023-01-27T22:42:28.930Z,50.06
2023-01-27T22:44:55.458Z,49.47
2023-01-27T22:47:22.092Z,49.32
2023-01-27T22:49:48.605Z,49.27
2023-01-27T22:52:16.617Z,49.66
2023-01-27T22:54:43.781Z,49.53
2023-01-27T22:57:10.343Z,50.17
2023-01-27T22:59:36.880Z,49.28
2023-01-27T23:02:03.561Z,49.11
2023-01-27T23:04:30.045Z,50.29
2023-01-27T23:06:56.543Z,49.80
2023-01-27T23:09:23.017Z,49.07
2023-01-27T23:11:49.541Z,50.26
2023-01-27T23:14:16.203Z,49.48
2023-01-27T23:16:42.760Z,49.97
2023-01-27T23:19:09.574Z,50.16
2023-01-27T23:21:36.420Z,49.83
2023-01-27T23:24:02.992Z,49.25
2023-01-27T23:26:29.634Z,50.31
2023-01-27T23:28:56.189Z,49.17
2023-01-27T23:31:22.721Z,49.35
2023-01-27T23:33:49.339Z,50.15
2023-01-27T23:36:15.886Z,50.01
2023-01-27T23:38:42.452Z,50.28
2023-01-27T23:41:18.392Z,50.25
2023-01-27T23:43:50.325Z,50.29
2023-01-27T23:46:16.877Z,50.09
2023-01-27T23:48:43.542Z,49.28
2023-01-27T23:51:13.176Z,50.27
2023-01-27T23:53:39.696Z,50.09
2023-01-27T23:56:06.808Z,49.22
2023-01-27T23:58:33.355Z,50.04
